Terminal Aerodrome Forecast
Issued by NWS Memphis, TN

Home | Current Version | Previous Version | Text Only | Print | Product List | Glossary On
Versions: 1 2 3 4 5 6 7 8 9 10 11 12 13 14 15 16 17 18 19 20 21
000
FTUS44 KMEG 282327
TAFJBR
TAF
KJBR 282327Z 2900/2924 15005KT P6SM SCT035
     FM290200 14004KT P6SM BKN100
     FM290600 14004KT P6SM SCT007 BKN250
      TEMPO 2909/2913 5SM BR OVC007
     FM291400 16005KT P6SM SCT007 BKN025
     FM291600 18009KT P6SM VCTS BKN035CB=

USA.gov is the U.S. government's official web portal to all federal, state and local government web resources and services.